createdAt,value
2022-08-07T00:00:19.595Z,21.32
2022-08-07T00:02:40.445Z,21.36
2022-08-07T00:04:45.386Z,21.22
2022-08-07T00:06:51.763Z,21.20
2022-08-07T00:08:54.656Z,21.21
2022-08-07T00:10:58.174Z,21.12
2022-08-07T00:13:09.749Z,21.07
2022-08-07T00:15:25.896Z,21.01
2022-08-07T00:17:40.643Z,20.93
2022-08-07T00:20:01.461Z,20.96
2022-08-07T00:22:05.297Z,20.98
2022-08-07T00:24:08.090Z,20.88
2022-08-07T00:26:18.599Z,20.83
2022-08-07T00:28:34.450Z,20.87
2022-08-07T00:30:47.919Z,20.84
2022-08-07T00:32:50.773Z,20.83
2022-08-07T00:34:52.759Z,20.79
2022-08-07T00:36:55.782Z,20.74
2022-08-07T00:38:57.820Z,20.81
2022-08-07T00:41:00.755Z,20.77
2022-08-07T00:43:02.698Z,20.81
2022-08-07T00:45:06.838Z,20.76
2022-08-07T00:47:16.024Z,20.77
2022-08-07T00:50:19.277Z,20.75
2022-08-07T00:51:58.325Z,20.75
2022-08-07T00:54:00.852Z,20.75
2022-08-07T00:56:03.982Z,20.75
2022-08-07T00:58:09.384Z,20.68
2022-08-07T01:00:11.841Z,20.65
2022-08-07T01:02:28.264Z,20.72
2022-08-07T01:04:32.597Z,20.63
2022-08-07T01:06:35.322Z,20.70
2022-08-07T01:08:38.135Z,20.68
2022-08-07T01:10:47.672Z,20.70
2022-08-07T01:12:58.224Z,20.64
2022-08-07T01:15:03.665Z,20.58
2022-08-07T01:17:07.081Z,20.60
2022-08-07T01:19:10.882Z,20.52
2022-08-07T01:21:33.338Z,20.51
2022-08-07T01:23:46.421Z,20.45
2022-08-07T01:25:55.080Z,20.53
2022-08-07T01:27:58.481Z,20.56
2022-08-07T01:30:02.086Z,20.51
2022-08-07T01:32:05.576Z,20.57
2022-08-07T01:34:14.663Z,20.48
2022-08-07T01:36:17.338Z,20.53
2022-08-07T01:38:24.781Z,20.57
2022-08-07T01:40:28.805Z,20.60
2022-08-07T01:42:39.338Z,20.63
2022-08-07T01:44:53.433Z,20.61
2022-08-07T01:46:55.738Z,20.56
2022-08-07T01:49:02.763Z,20.54
2022-08-07T01:51:24.574Z,20.46
2022-08-07T01:54:09.938Z,20.57
2022-08-07T01:56:10.547Z,20.52
2022-08-07T01:58:27.470Z,20.58
2022-08-07T02:00:45.271Z,20.56
2022-08-07T02:03:18.023Z,20.52
2022-08-07T02:05:48.307Z,20.54
2022-08-07T02:08:10.251Z,20.55
2022-08-07T02:10:19.551Z,20.55
2022-08-07T02:12:29.409Z,20.57
2022-08-07T02:14:40.887Z,20.53
2022-08-07T02:16:44.119Z,20.53
2022-08-07T02:18:48.057Z,20.54
2022-08-07T02:20:55.875Z,20.54
2022-08-07T02:23:05.423Z,20.54
2022-08-07T02:25:13.795Z,20.55
2022-08-07T02:27:22.820Z,20.53
2022-08-07T02:29:25.151Z,20.54
2022-08-07T02:31:34.608Z,20.57
2022-08-07T02:34:01.883Z,20.59
2022-08-07T02:36:26.993Z,20.54
2022-08-07T02:38:31.673Z,20.53
2022-08-07T02:40:35.956Z,20.52
2022-08-07T02:42:39.418Z,20.55
2022-08-07T02:44:47.820Z,20.55
2022-08-07T02:46:52.628Z,20.53
2022-08-07T02:48:55.348Z,20.49
2022-08-07T02:50:59.562Z,20.50
2022-08-07T02:53:07.237Z,20.51
2022-08-07T02:55:27.642Z,20.53
2022-08-07T02:57:34.199Z,20.52
2022-08-07T02:59:38.083Z,20.51
2022-08-07T03:01:47.280Z,20.49
2022-08-07T03:03:56.525Z,20.49
2022-08-07T03:06:05.938Z,20.47
2022-08-07T03:08:19.654Z,20.42
2022-08-07T03:10:32.956Z,20.40
2022-08-07T03:12:35.884Z,20.35
2022-08-07T03:14:39.919Z,20.34
2022-08-07T03:16:43.010Z,20.33
2022-08-07T03:18:45.122Z,20.33
2022-08-07T03:20:50.413Z,20.31
2022-08-07T03:22:55.375Z,20.29
2022-08-07T03:25:00.159Z,20.28
2022-08-07T03:27:05.635Z,20.25
2022-08-07T03:29:14.718Z,20.23
2022-08-07T03:31:42.301Z,20.20
2022-08-07T03:33:51.773Z,20.18
2022-08-07T03:35:54.245Z,20.17
2022-08-07T03:38:02.334Z,20.16
2022-08-07T03:40:16.606Z,20.16
2022-08-07T03:42:19.932Z,20.11
2022-08-07T03:44:34.214Z,20.10
2022-08-07T03:46:38.273Z,20.07
2022-08-07T03:49:02.094Z,20.05
2022-08-07T03:51:05.070Z,20.04
2022-08-07T03:53:13.763Z,20.01
2022-08-07T03:55:17.139Z,19.99
2022-08-07T03:58:33.676Z,19.98
2022-08-07T03:59:46.519Z,19.96
2022-08-07T04:02:03.115Z,19.95
2022-08-07T04:04:05.675Z,19.91
2022-08-07T04:06:37.952Z,19.93
2022-08-07T04:08:34.739Z,19.89
2022-08-07T04:10:38.690Z,19.89
2022-08-07T04:12:41.770Z,19.91
2022-08-07T04:14:47.632Z,19.85
2022-08-07T04:16:58.304Z,19.84
2022-08-07T04:19:12.323Z,19.82
2022-08-07T04:21:19.124Z,19.81
2022-08-07T04:23:21.839Z,19.76
2022-08-07T04:25:24.718Z,19.73
2022-08-07T04:27:36.241Z,19.74
2022-08-07T04:29:58.643Z,19.72
2022-08-07T04:32:10.126Z,19.71
2022-08-07T04:34:16.462Z,19.73
2022-08-07T04:36:22.691Z,19.73
2022-08-07T04:38:28.761Z,19.73
2022-08-07T04:40:32.246Z,19.74
2022-08-07T04:42:34.709Z,19.71
2022-08-07T04:44:54.561Z,19.68
2022-08-07T04:47:56.644Z,19.69
2022-08-07T04:50:03.501Z,19.61
2022-08-07T04:52:25.117Z,19.64
2022-08-07T04:54:40.955Z,19.63
2022-08-07T04:58:16.042Z,19.63
2022-08-07T05:00:11.170Z,19.59
2022-08-07T05:02:24.365Z,19.58
2022-08-07T05:04:53.743Z,19.56
2022-08-07T05:07:19.460Z,19.55
2022-08-07T05:09:45.293Z,19.54
2022-08-07T05:11:57.333Z,19.54
2022-08-07T05:14:53.264Z,19.53
2022-08-07T05:16:44.144Z,19.52
2022-08-07T05:18:53.441Z,19.51
2022-08-07T05:21:06.156Z,19.51
2022-08-07T05:23:15.497Z,19.52
2022-08-07T05:25:35.608Z,19.50
2022-08-07T05:28:02.642Z,19.49
2022-08-07T05:30:02.661Z,19.52
2022-08-07T05:32:06.541Z,19.52
2022-08-07T05:34:11.961Z,19.53
2022-08-07T05:36:22.394Z,19.52
2022-08-07T05:38:59.485Z,19.54
2022-08-07T05:40:51.536Z,19.58
2022-08-07T05:42:56.304Z,19.56
2022-08-07T05:45:11.829Z,19.56
2022-08-07T05:47:38.529Z,19.61
2022-08-07T05:49:44.401Z,19.59
2022-08-07T05:51:47.391Z,19.59
2022-08-07T05:54:13.952Z,19.62
2022-08-07T05:56:13.218Z,19.59
2022-08-07T05:58:18.857Z,19.59
2022-08-07T06:00:39.879Z,19.63
2022-08-07T06:02:45.173Z,19.65
2022-08-07T06:04:55.196Z,19.65
2022-08-07T06:07:03.412Z,19.66
2022-08-07T06:09:07.214Z,19.68
2022-08-07T06:11:09.896Z,19.65
2022-08-07T06:13:13.594Z,19.65
2022-08-07T06:15:19.772Z,19.66
2022-08-07T06:17:23.042Z,19.69
2022-08-07T06:19:52.026Z,19.68
2022-08-07T06:22:15.683Z,19.74
2022-08-07T06:24:48.172Z,19.71
2022-08-07T06:26:42.831Z,19.72
2022-08-07T06:28:53.027Z,19.74
2022-08-07T06:30:55.244Z,19.71
2022-08-07T06:32:56.948Z,19.72
2022-08-07T06:35:02.576Z,19.75
2022-08-07T06:37:12.357Z,19.75
2022-08-07T06:40:17.916Z,19.76
2022-08-07T06:42:07.475Z,19.78
2022-08-07T06:44:13.060Z,19.80
2022-08-07T06:46:31.131Z,19.80
2022-08-07T06:48:33.561Z,19.80
2022-08-07T06:50:39.534Z,19.78
2022-08-07T06:52:53.193Z,19.85
2022-08-07T06:55:32.465Z,19.84
2022-08-07T06:57:22.089Z,19.80
2022-08-07T07:00:14.539Z,19.80
2022-08-07T07:02:08.489Z,19.92
2022-08-07T07:04:28.499Z,19.82
2022-08-07T07:06:39.403Z,19.85
2022-08-07T07:09:23.530Z,19.92
2022-08-07T07:12:08.961Z,19.94
2022-08-07T07:13:57.833Z,19.95
2022-08-07T07:16:14.636Z,20.01
2022-08-07T07:18:47.872Z,20.06
2022-08-07T07:20:57.615Z,20.11
2022-08-07T07:24:06.052Z,20.14
2022-08-07T07:26:34.379Z,20.17
2022-08-07T07:28:02.621Z,20.18
2022-08-07T07:30:09.884Z,20.23
2022-08-07T07:32:16.741Z,20.28
2022-08-07T07:34:22.593Z,20.31
2022-08-07T07:36:34.730Z,20.34
2022-08-07T07:38:43.373Z,20.37
2022-08-07T07:40:49.139Z,20.42
2022-08-07T07:42:55.613Z,20.44
2022-08-07T07:44:59.890Z,20.51
2022-08-07T07:47:15.943Z,20.54
2022-08-07T07:50:35.221Z,20.52
2022-08-07T07:51:58.550Z,20.60
2022-08-07T07:54:03.266Z,20.62
2022-08-07T07:56:06.694Z,20.66
2022-08-07T07:58:10.439Z,20.70
2022-08-07T08:00:14.989Z,20.72
2022-08-07T08:02:36.630Z,20.75
2022-08-07T08:04:40.177Z,20.77
2022-08-07T08:06:52.094Z,20.79
2022-08-07T08:08:55.384Z,20.81
2022-08-07T08:11:03.963Z,20.88
2022-08-07T08:13:10.410Z,20.91
2022-08-07T08:15:16.939Z,20.97
2022-08-07T08:17:57.333Z,21.01
2022-08-07T08:20:17.550Z,21.04
2022-08-07T08:22:36.436Z,21.08
2022-08-07T08:25:25.035Z,21.10
2022-08-07T08:27:44.010Z,21.15
2022-08-07T08:30:05.904Z,21.19
2022-08-07T08:32:18.874Z,21.20
2022-08-07T08:34:30.118Z,21.25
2022-08-07T08:36:34.516Z,21.28
2022-08-07T08:38:41.033Z,21.22
2022-08-07T08:40:49.757Z,21.27
2022-08-07T08:43:01.533Z,21.32
2022-08-07T08:45:19.880Z,21.26
2022-08-07T08:47:51.945Z,21.39
2022-08-07T08:50:39.557Z,21.49
2022-08-07T08:53:03.910Z,21.53
2022-08-07T08:55:54.464Z,21.58
2022-08-07T08:58:13.255Z,21.55
2022-08-07T09:00:32.879Z,21.62
2022-08-07T09:03:01.906Z,21.68
2022-08-07T09:05:43.505Z,21.75
2022-08-07T09:07:57.460Z,21.79
2022-08-07T09:10:38.808Z,21.88
2022-08-07T09:13:06.933Z,21.96
2022-08-07T09:16:20.482Z,22.02
2022-08-07T09:17:59.515Z,22.04
2022-08-07T09:20:34.942Z,22.09
2022-08-07T09:24:33.255Z,22.16
2022-08-07T09:25:56.429Z,22.37
2022-08-07T09:29:22.270Z,22.45
2022-08-07T09:30:55.185Z,22.57
2022-08-07T09:33:16.858Z,22.64
2022-08-07T09:36:04.797Z,22.68
2022-08-07T09:38:10.466Z,22.77
2022-08-07T09:40:47.130Z,22.83
2022-08-07T09:43:40.292Z,22.97
2022-08-07T09:47:25.074Z,23.12
2022-08-07T09:48:55.873Z,23.26
2022-08-07T09:52:15.631Z,23.32
2022-08-07T09:54:02.831Z,23.38
2022-08-07T09:56:34.042Z,23.56
2022-08-07T09:59:13.798Z,23.80
2022-08-07T10:01:52.349Z,23.85
2022-08-07T10:04:15.841Z,23.95
2022-08-07T10:06:27.345Z,24.16
2022-08-07T10:09:05.333Z,24.31
2022-08-07T10:12:03.424Z,24.50
2022-08-07T10:14:30.309Z,24.69
2022-08-07T10:16:53.664Z,24.84
2022-08-07T10:19:11.101Z,25.04
2022-08-07T10:22:14.906Z,25.22
2022-08-07T10:24:30.869Z,25.41
2022-08-07T10:26:53.691Z,25.61
2022-08-07T10:29:11.247Z,25.73
2022-08-07T10:31:50.528Z,25.84
2022-08-07T10:34:18.492Z,26.04
2022-08-07T10:36:52.175Z,26.15
2022-08-07T10:39:41.994Z,26.26
2022-08-07T10:42:09.219Z,26.43
2022-08-07T10:44:33.767Z,26.58
2022-08-07T10:46:47.429Z,26.73
2022-08-07T10:48:57.991Z,26.75
2022-08-07T10:51:57.570Z,26.72
2022-08-07T10:54:01.155Z,26.78
2022-08-07T10:56:09.602Z,26.93
2022-08-07T10:58:40.203Z,27.01
2022-08-07T11:01:35.836Z,27.20
2022-08-07T11:04:17.061Z,27.34
2022-08-07T11:06:47.998Z,27.45
2022-08-07T11:09:11.467Z,27.57
2022-08-07T11:11:39.968Z,27.56
2022-08-07T11:14:43.774Z,27.65
2022-08-07T11:16:29.852Z,27.84
2022-08-07T11:18:51.075Z,27.96
2022-08-07T11:20:56.366Z,28.07
2022-08-07T11:23:30.815Z,27.99
2022-08-07T11:25:49.924Z,28.08
2022-08-07T11:28:04.872Z,28.11
2022-08-07T11:30:18.361Z,28.25
2022-08-07T11:32:45.047Z,28.27
2022-08-07T11:35:09.961Z,28.30
2022-08-07T11:37:38.380Z,28.29
2022-08-07T11:40:21.903Z,28.16
2022-08-07T11:42:30.706Z,28.12
2022-08-07T11:44:52.106Z,28.27
2022-08-07T11:47:26.159Z,28.36
2022-08-07T11:50:31.634Z,28.48
2022-08-07T11:52:52.094Z,28.61
2022-08-07T11:55:18.686Z,28.66
2022-08-07T11:58:00.253Z,28.76
2022-08-07T12:00:36.311Z,28.87
2022-08-07T12:03:44.324Z,28.93
2022-08-07T12:05:47.634Z,29.14
2022-08-07T12:08:05.424Z,29.22
2022-08-07T12:10:19.472Z,29.24
2022-08-07T12:12:37.790Z,29.26
2022-08-07T12:15:03.678Z,29.31
2022-08-07T12:17:19.988Z,29.19
2022-08-07T12:19:56.825Z,29.20
2022-08-07T12:22:39.466Z,29.30
2022-08-07T12:26:05.759Z,29.48
2022-08-07T12:28:09.225Z,29.59
2022-08-07T12:30:13.238Z,29.73
2022-08-07T12:32:31.956Z,29.87
2022-08-07T12:34:38.873Z,30.02
2022-08-07T12:36:42.964Z,30.13
2022-08-07T12:38:57.432Z,30.24
2022-08-07T12:41:02.482Z,30.31
2022-08-07T12:43:09.796Z,30.38
2022-08-07T12:45:23.651Z,30.50
2022-08-07T12:47:40.722Z,30.58
2022-08-07T12:50:38.245Z,30.58
2022-08-07T12:52:34.932Z,30.74
2022-08-07T12:54:55.069Z,30.71
2022-08-07T12:57:07.431Z,30.81
2022-08-07T12:59:20.736Z,30.79
2022-08-07T13:01:55.781Z,30.61
2022-08-07T13:04:05.426Z,30.47
2022-08-07T13:07:00.430Z,30.49
2022-08-07T13:09:12.694Z,30.35
2022-08-07T13:12:01.783Z,30.59
2022-08-07T13:14:24.428Z,30.69
2022-08-07T13:16:37.153Z,30.85
2022-08-07T13:19:35.098Z,30.97
2022-08-07T13:21:57.683Z,31.12
2022-08-07T13:24:17.105Z,31.18
2022-08-07T13:26:33.822Z,31.36
2022-08-07T13:28:46.558Z,31.46
2022-08-07T13:31:32.200Z,31.47
2022-08-07T13:34:29.821Z,31.51
2022-08-07T13:36:30.667Z,31.56
2022-08-07T13:39:02.818Z,31.69
2022-08-07T13:41:50.810Z,31.82
2022-08-07T13:44:00.558Z,31.88
2022-08-07T13:46:21.529Z,31.85
2022-08-07T13:48:34.601Z,31.92
2022-08-07T13:50:44.915Z,32.10
2022-08-07T13:53:03.250Z,32.09
2022-08-07T13:55:19.544Z,32.06
2022-08-07T13:57:32.150Z,32.24
2022-08-07T13:59:53.126Z,32.15
2022-08-07T14:02:10.747Z,32.19
2022-08-07T14:04:16.756Z,32.34
2022-08-07T14:06:24.657Z,32.45
2022-08-07T14:08:29.606Z,32.48
2022-08-07T14:10:42.439Z,32.38
2022-08-07T14:12:55.612Z,32.60
2022-08-07T14:15:40.509Z,32.74
2022-08-07T14:18:23.857Z,32.78
2022-08-07T14:20:42.075Z,33.00
2022-08-07T14:22:43.704Z,33.15
2022-08-07T14:24:51.524Z,33.34
2022-08-07T14:27:00.296Z,33.44
2022-08-07T14:30:02.973Z,33.57
2022-08-07T14:33:54.805Z,33.83
2022-08-07T14:36:01.210Z,33.96
2022-08-07T14:38:06.239Z,33.99
2022-08-07T14:40:26.168Z,33.92
2022-08-07T14:44:59.619Z,34.21
2022-08-07T14:47:14.743Z,34.21
2022-08-07T14:49:57.356Z,34.32
2022-08-07T14:52:04.843Z,34.43
2022-08-07T14:54:31.057Z,34.56
2022-08-07T14:56:32.121Z,34.58
2022-08-07T14:58:37.744Z,34.52
2022-08-07T15:00:51.084Z,34.04
2022-08-07T15:02:57.232Z,34.28
2022-08-07T15:05:01.713Z,34.37
2022-08-07T15:07:03.938Z,34.38
2022-08-07T15:09:59.677Z,34.57
2022-08-07T15:12:01.140Z,34.78
2022-08-07T15:14:09.948Z,34.92
2022-08-07T15:16:14.653Z,35.06
2022-08-07T15:18:33.855Z,35.12
2022-08-07T15:23:20.435Z,35.20
2022-08-07T15:30:21.982Z,34.08
2022-08-07T15:32:39.555Z,34.15
2022-08-07T15:37:27.819Z,34.42
2022-08-07T15:39:57.206Z,34.53
2022-08-07T15:42:43.667Z,34.58
2022-08-07T15:44:29.054Z,34.77
2022-08-07T15:49:13.293Z,34.66
2022-08-07T15:53:55.083Z,34.68
2022-08-07T15:56:06.009Z,34.71
2022-08-07T15:58:20.710Z,34.73
2022-08-07T16:00:33.715Z,34.71
2022-08-07T16:02:46.568Z,34.79
2022-08-07T16:04:52.285Z,34.66
2022-08-07T16:06:57.182Z,34.62
2022-08-07T16:09:07.803Z,34.65
2022-08-07T16:11:56.156Z,34.63
2022-08-07T16:14:03.074Z,34.67
2022-08-07T16:16:47.768Z,34.74
2022-08-07T16:19:42.860Z,34.67
2022-08-07T16:22:14.791Z,34.57
2022-08-07T16:24:52.845Z,34.51
2022-08-07T16:27:18.619Z,34.32
2022-08-07T16:30:11.522Z,34.15
2022-08-07T16:32:07.577Z,34.02
2022-08-07T16:34:48.610Z,33.81
2022-08-07T16:38:04.079Z,33.76
2022-08-07T16:40:28.081Z,33.58
2022-08-07T16:42:59.347Z,33.58
2022-08-07T16:45:29.283Z,33.51
2022-08-07T16:48:05.584Z,33.47
2022-08-07T16:50:39.009Z,33.39
2022-08-07T16:53:09.865Z,33.22
2022-08-07T16:55:54.853Z,33.15
2022-08-07T16:58:04.152Z,32.87
2022-08-07T17:00:10.953Z,32.70
2022-08-07T17:02:52.983Z,32.44
2022-08-07T17:06:01.453Z,32.28
2022-08-07T17:07:55.994Z,32.05
2022-08-07T17:10:32.361Z,31.92
2022-08-07T17:12:45.229Z,31.78
2022-08-07T17:14:53.781Z,31.56
2022-08-07T17:17:00.186Z,31.43
2022-08-07T17:19:15.561Z,31.29
2022-08-07T17:21:51.560Z,31.13
2022-08-07T17:24:03.388Z,30.99
2022-08-07T17:26:24.118Z,30.84
2022-08-07T17:28:50.004Z,30.81
2022-08-07T17:31:16.439Z,30.77
2022-08-07T17:34:08.496Z,30.65
2022-08-07T17:36:13.738Z,30.58
2022-08-07T17:38:34.219Z,30.51
2022-08-07T17:42:02.700Z,30.32
2022-08-07T17:44:00.892Z,30.22
2022-08-07T17:46:08.107Z,30.07
2022-08-07T17:48:11.303Z,29.99
2022-08-07T17:50:18.977Z,29.95
2022-08-07T17:52:40.276Z,29.93
2022-08-07T17:54:55.341Z,29.86
2022-08-07T17:56:59.992Z,29.84
2022-08-07T17:59:16.995Z,29.80
2022-08-07T18:01:37.457Z,29.68
2022-08-07T18:04:03.826Z,29.66
2022-08-07T18:06:16.629Z,29.56
2022-08-07T18:09:01.159Z,29.49
2022-08-07T18:12:06.775Z,29.41
2022-08-07T18:13:55.200Z,29.29
2022-08-07T18:16:15.482Z,29.32
2022-08-07T18:21:11.604Z,29.25
2022-08-07T18:21:55.275Z,29.19
2022-08-07T18:24:01.629Z,29.14
2022-08-07T18:26:15.234Z,29.01
2022-08-07T18:28:34.563Z,29.01
2022-08-07T18:30:56.130Z,28.97
2022-08-07T18:33:26.938Z,28.88
2022-08-07T18:36:06.087Z,28.84
2022-08-07T18:38:57.224Z,28.81
2022-08-07T18:40:53.669Z,28.77
2022-08-07T18:43:37.169Z,28.68
2022-08-07T18:46:24.903Z,28.63
2022-08-07T18:50:19.123Z,28.58
2022-08-07T18:51:14.869Z,28.51
2022-08-07T18:53:18.483Z,28.43
2022-08-07T18:55:55.809Z,28.36
2022-08-07T18:58:15.049Z,28.30
2022-08-07T19:00:32.526Z,28.29
2022-08-07T19:02:52.676Z,28.22
2022-08-07T19:05:14.818Z,28.16
2022-08-07T19:07:51.676Z,28.09
2022-08-07T19:10:09.995Z,28.06
2022-08-07T19:12:20.990Z,28.05
2022-08-07T19:15:00.575Z,28.00
2022-08-07T19:17:16.120Z,27.94
2022-08-07T19:19:54.726Z,27.86
2022-08-07T19:22:05.156Z,27.85
2022-08-07T19:24:30.202Z,27.81
2022-08-07T19:27:09.102Z,27.79
2022-08-07T19:30:58.000Z,27.72
2022-08-07T19:32:07.934Z,27.68
2022-08-07T19:34:16.118Z,27.65
2022-08-07T19:36:51.960Z,27.61
2022-08-07T19:39:00.564Z,27.56
2022-08-07T19:41:11.944Z,27.50
2022-08-07T19:43:21.867Z,27.48
2022-08-07T19:46:07.270Z,27.37
2022-08-07T19:48:18.839Z,27.38
2022-08-07T19:50:43.940Z,27.37
2022-08-07T19:52:59.133Z,27.32
2022-08-07T19:55:03.470Z,27.28
2022-08-07T19:58:03.481Z,27.28
2022-08-07T19:59:41.195Z,27.24
2022-08-07T20:01:57.695Z,27.19
2022-08-07T20:04:01.508Z,27.16
2022-08-07T20:06:15.279Z,27.13
2022-08-07T20:08:33.835Z,27.08
2022-08-07T20:10:54.377Z,27.04
2022-08-07T20:12:59.610Z,27.01
2022-08-07T20:15:09.661Z,26.98
2022-08-07T20:17:22.948Z,26.96
2022-08-07T20:19:47.580Z,26.94
2022-08-07T20:21:54.220Z,26.93
2022-08-07T20:24:01.263Z,26.87
2022-08-07T20:26:09.904Z,26.86
2022-08-07T20:28:17.153Z,26.83
2022-08-07T20:30:21.818Z,26.80
2022-08-07T20:32:39.985Z,26.79
2022-08-07T20:34:51.073Z,26.76
2022-08-07T20:36:58.430Z,26.73
2022-08-07T20:39:06.195Z,26.71
2022-08-07T20:41:38.305Z,26.69
2022-08-07T20:43:47.416Z,26.64
2022-08-07T20:46:26.518Z,26.62
2022-08-07T20:48:28.727Z,26.61
2022-08-07T20:50:33.579Z,26.60
2022-08-07T20:52:51.742Z,26.58
2022-08-07T20:54:56.415Z,26.55
2022-08-07T20:57:05.836Z,26.51
2022-08-07T21:00:04.351Z,26.50
2022-08-07T21:01:45.697Z,26.47
2022-08-07T21:04:22.141Z,26.46
2022-08-07T21:06:28.453Z,26.42
2022-08-07T21:08:46.664Z,26.38
2022-08-07T21:10:51.232Z,26.38
2022-08-07T21:13:00.842Z,26.34
2022-08-07T21:15:08.025Z,26.30
2022-08-07T21:18:03.360Z,26.28
2022-08-07T21:19:51.798Z,26.25
2022-08-07T21:21:58.680Z,26.23
2022-08-07T21:24:10.751Z,26.18
2022-08-07T21:26:43.668Z,26.11
2022-08-07T21:28:58.163Z,26.13
2022-08-07T21:31:08.807Z,26.12
2022-08-07T21:33:21.559Z,26.08
2022-08-07T21:35:34.586Z,26.07
2022-08-07T21:38:11.019Z,26.03
2022-08-07T21:40:35.959Z,26.03
2022-08-07T21:42:51.200Z,25.99
2022-08-07T21:46:03.479Z,25.96
2022-08-07T21:47:50.263Z,25.93
2022-08-07T21:50:40.642Z,25.92
2022-08-07T21:53:12.881Z,25.90
2022-08-07T21:55:46.992Z,25.84
2022-08-07T21:58:33.583Z,25.82
2022-08-07T22:01:01.430Z,25.79
2022-08-07T22:03:30.553Z,25.77
2022-08-07T22:05:45.190Z,25.76
2022-08-07T22:07:58.649Z,25.73
2022-08-07T22:10:05.954Z,25.62
2022-08-07T22:12:31.672Z,25.65
2022-08-07T22:14:59.066Z,25.59
2022-08-07T22:17:04.988Z,25.53
2022-08-07T22:19:29.970Z,25.49
2022-08-07T22:22:04.850Z,25.47
2022-08-07T22:24:19.833Z,25.42
2022-08-07T22:26:44.598Z,25.39
2022-08-07T22:29:37.809Z,25.29
2022-08-07T22:32:05.617Z,25.29
2022-08-07T22:34:13.736Z,25.25
2022-08-07T22:36:46.513Z,25.23
2022-08-07T22:39:05.050Z,25.20
2022-08-07T22:42:03.521Z,25.16
2022-08-07T22:44:21.783Z,25.11
2022-08-07T22:47:01.882Z,25.09
2022-08-07T22:49:07.665Z,25.00
2022-08-07T22:51:11.234Z,24.96
2022-08-07T22:54:06.527Z,24.91
2022-08-07T22:56:04.840Z,24.90
2022-08-07T22:58:16.247Z,24.81
2022-08-07T23:00:32.301Z,24.78
2022-08-07T23:02:43.981Z,24.74
2022-08-07T23:06:09.462Z,24.74
2022-08-07T23:07:42.217Z,24.63
2022-08-07T23:10:38.014Z,24.59
2022-08-07T23:13:01.623Z,24.55
2022-08-07T23:16:07.070Z,24.50
2022-08-07T23:18:25.836Z,24.44
2022-08-07T23:21:06.144Z,24.39
2022-08-07T23:24:06.043Z,24.39
2022-08-07T23:26:18.399Z,24.36
2022-08-07T23:28:28.634Z,24.36
2022-08-07T23:30:43.260Z,24.32
2022-08-07T23:34:33.935Z,24.30
2022-08-07T23:36:39.045Z,24.25
2022-08-07T23:39:15.777Z,24.16
2022-08-07T23:42:04.211Z,24.21
2022-08-07T23:44:13.176Z,24.17
2022-08-07T23:46:35.125Z,24.14
2022-08-07T23:49:01.401Z,24.14
2022-08-07T23:53:01.181Z,24.13
2022-08-07T23:54:46.013Z,24.11
2022-08-07T23:57:09.205Z,24.08
